sensor_id;sensor_type;location;lat;lon;timestamp;temperature;humidity
21612;DHT22;47005;52.292;13.452;2022-12-11T00:02:28;2.60;98.80
21612;DHT22;47005;52.292;13.452;2022-12-11T00:04:54;2.60;98.90
21612;DHT22;47005;52.292;13.452;2022-12-11T00:07:19;2.50;98.90
21612;DHT22;47005;52.292;13.452;2022-12-11T00:09:45;2.60;98.90
21612;DHT22;47005;52.292;13.452;2022-12-11T00:12:10;2.60;98.60
21612;DHT22;47005;52.292;13.452;2022-12-11T00:14:36;2.60;98.70
21612;DHT22;47005;52.292;13.452;2022-12-11T00:17:02;2.60;98.80
21612;DHT22;47005;52.292;13.452;2022-12-11T00:19:28;2.60;98.80
21612;DHT22;47005;52.292;13.452;2022-12-11T00:21:53;2.60;98.90
21612;DHT22;47005;52.292;13.452;2022-12-11T00:24:19;2.60;98.90
21612;DHT22;47005;52.292;13.452;2022-12-11T00:26:44;2.60;98.80
21612;DHT22;47005;52.292;13.452;2022-12-11T00:29:10;2.60;98.70
21612;DHT22;47005;52.292;13.452;2022-12-11T00:31:40;2.60;98.80
21612;DHT22;47005;52.292;13.452;2022-12-11T00:34:06;2.50;98.50
21612;DHT22;47005;52.292;13.452;2022-12-11T00:36:32;2.60;98.50
21612;DHT22;47005;52.292;13.452;2022-12-11T00:38:57;2.60;98.50
21612;DHT22;47005;52.292;13.452;2022-12-11T00:41:23;2.60;98.30
21612;DHT22;47005;52.292;13.452;2022-12-11T00:43:49;2.60;98.20
21612;DHT22;47005;52.292;13.452;2022-12-11T00:46:14;2.50;98.30
21612;DHT22;47005;52.292;13.452;2022-12-11T00:48:40;2.50;98.00
21612;DHT22;47005;52.292;13.452;2022-12-11T00:51:06;2.60;98.10
21612;DHT22;47005;52.292;13.452;2022-12-11T00:53:32;2.50;98.10
21612;DHT22;47005;52.292;13.452;2022-12-11T00:55:58;2.50;98.30
21612;DHT22;47005;52.292;13.452;2022-12-11T00:58:23;2.50;98.50
21612;DHT22;47005;52.292;13.452;2022-12-11T01:00:49;2.50;98.40
21612;DHT22;47005;52.292;13.452;2022-12-11T01:03:16;2.50;98.50
21612;DHT22;47005;52.292;13.452;2022-12-11T01:05:50;2.60;98.60
21612;DHT22;47005;52.292;13.452;2022-12-11T01:08:17;2.50;98.30
21612;DHT22;47005;52.292;13.452;2022-12-11T01:10:43;2.50;98.30
21612;DHT22;47005;52.292;13.452;2022-12-11T01:13:09;2.50;98.40
21612;DHT22;47005;52.292;13.452;2022-12-11T01:15:43;2.50;98.40
21612;DHT22;47005;52.292;13.452;2022-12-11T01:18:12;2.50;98.20
21612;DHT22;47005;52.292;13.452;2022-12-11T01:20:40;2.50;98.30
21612;DHT22;47005;52.292;13.452;2022-12-11T01:23:06;2.50;98.40
21612;DHT22;47005;52.292;13.452;2022-12-11T01:25:34;2.50;98.40
21612;DHT22;47005;52.292;13.452;2022-12-11T01:28:03;2.50;98.30
21612;DHT22;47005;52.292;13.452;2022-12-11T01:30:28;2.50;98.20
21612;DHT22;47005;52.292;13.452;2022-12-11T01:32:54;2.50;98.40
21612;DHT22;47005;52.292;13.452;2022-12-11T01:35:19;2.50;98.40
21612;DHT22;47005;52.292;13.452;2022-12-11T01:37:46;2.50;98.40
21612;DHT22;47005;52.292;13.452;2022-12-11T01:40:14;2.50;98.00
21612;DHT22;47005;52.292;13.452;2022-12-11T01:42:40;2.50;98.20
21612;DHT22;47005;52.292;13.452;2022-12-11T01:45:24;2.50;98.20
21612;DHT22;47005;52.292;13.452;2022-12-11T01:50:58;2.60;98.30
21612;DHT22;47005;52.292;13.452;2022-12-11T01:53:36;2.50;98.10
21612;DHT22;47005;52.292;13.452;2022-12-11T01:56:03;2.60;98.10
21612;DHT22;47005;52.292;13.452;2022-12-11T01:58:38;2.50;98.20
21612;DHT22;47005;52.292;13.452;2022-12-11T02:01:05;2.50;98.20
21612;DHT22;47005;52.292;13.452;2022-12-11T02:03:33;2.50;98.20
21612;DHT22;47005;52.292;13.452;2022-12-11T02:06:00;2.50;98.30
21612;DHT22;47005;52.292;13.452;2022-12-11T02:08:25;2.50;98.20
21612;DHT22;47005;52.292;13.452;2022-12-11T02:16:20;2.50;98.30
21612;DHT22;47005;52.292;13.452;2022-12-11T02:21:25;2.50;98.30
21612;DHT22;47005;52.292;13.452;2022-12-11T02:23:58;2.50;98.20
21612;DHT22;47005;52.292;13.452;2022-12-11T02:29:23;2.50;98.20
21612;DHT22;47005;52.292;13.452;2022-12-11T02:32:20;2.50;98.30
21612;DHT22;47005;52.292;13.452;2022-12-11T02:35:37;2.50;98.20
21612;DHT22;47005;52.292;13.452;2022-12-11T02:38:27;2.50;97.90
21612;DHT22;47005;52.292;13.452;2022-12-11T02:40:54;2.50;98.20
21612;DHT22;47005;52.292;13.452;2022-12-11T02:43:22;2.50;98.20
21612;DHT22;47005;52.292;13.452;2022-12-11T02:45:50;2.50;97.90
21612;DHT22;47005;52.292;13.452;2022-12-11T02:48:17;2.50;98.00
21612;DHT22;47005;52.292;13.452;2022-12-11T02:50:46;2.50;98.00
21612;DHT22;47005;52.292;13.452;2022-12-11T02:53:16;2.40;97.90
21612;DHT22;47005;52.292;13.452;2022-12-11T02:55:43;2.40;98.10
21612;DHT22;47005;52.292;13.452;2022-12-11T02:58:26;2.40;98.10
21612;DHT22;47005;52.292;13.452;2022-12-11T03:00:53;2.40;98.20
21612;DHT22;47005;52.292;13.452;2022-12-11T03:03:19;2.40;98.20
21612;DHT22;47005;52.292;13.452;2022-12-11T03:05:46;2.40;98.20
21612;DHT22;47005;52.292;13.452;2022-12-11T03:08:11;2.40;98.10
21612;DHT22;47005;52.292;13.452;2022-12-11T03:10:43;2.40;98.10
21612;DHT22;47005;52.292;13.452;2022-12-11T03:13:09;2.40;98.20
21612;DHT22;47005;52.292;13.452;2022-12-11T03:16:14;2.40;98.10
21612;DHT22;47005;52.292;13.452;2022-12-11T03:18:53;2.40;98.30
21612;DHT22;47005;52.292;13.452;2022-12-11T03:21:46;2.40;98.20
21612;DHT22;47005;52.292;13.452;2022-12-11T03:27:27;2.40;98.20
21612;DHT22;47005;52.292;13.452;2022-12-11T03:30:12;2.40;98.10
21612;DHT22;47005;52.292;13.452;2022-12-11T03:33:02;2.40;98.00
21612;DHT22;47005;52.292;13.452;2022-12-11T03:38:07;2.40;98.00
21612;DHT22;47005;52.292;13.452;2022-12-11T03:40:34;2.40;98.10
21612;DHT22;47005;52.292;13.452;2022-12-11T03:43:02;2.30;98.20
21612;DHT22;47005;52.292;13.452;2022-12-11T03:45:29;2.30;98.30
21612;DHT22;47005;52.292;13.452;2022-12-11T03:47:56;2.30;98.10
21612;DHT22;47005;52.292;13.452;2022-12-11T03:50:23;2.30;98.00
21612;DHT22;47005;52.292;13.452;2022-12-11T03:52:51;2.30;98.00
21612;DHT22;47005;52.292;13.452;2022-12-11T03:55:20;2.30;98.10
21612;DHT22;47005;52.292;13.452;2022-12-11T03:57:46;2.30;98.00
21612;DHT22;47005;52.292;13.452;2022-12-11T04:00:15;2.30;98.10
21612;DHT22;47005;52.292;13.452;2022-12-11T04:02:41;2.30;98.20
21612;DHT22;47005;52.292;13.452;2022-12-11T04:05:08;2.30;98.20
21612;DHT22;47005;52.292;13.452;2022-12-11T04:07:34;2.30;98.20
21612;DHT22;47005;52.292;13.452;2022-12-11T04:10:00;2.30;98.40
21612;DHT22;47005;52.292;13.452;2022-12-11T04:12:26;2.30;98.40
21612;DHT22;47005;52.292;13.452;2022-12-11T04:14:52;2.30;98.30
21612;DHT22;47005;52.292;13.452;2022-12-11T04:17:34;2.30;98.40
21612;DHT22;47005;52.292;13.452;2022-12-11T04:20:20;2.30;98.50
21612;DHT22;47005;52.292;13.452;2022-12-11T04:23:07;2.30;98.30
21612;DHT22;47005;52.292;13.452;2022-12-11T04:26:06;2.40;98.40
21612;DHT22;47005;52.292;13.452;2022-12-11T04:28:32;2.30;98.40
21612;DHT22;47005;52.292;13.452;2022-12-11T04:30:57;2.30;98.30
21612;DHT22;47005;52.292;13.452;2022-12-11T04:33:23;2.30;98.40
21612;DHT22;47005;52.292;13.452;2022-12-11T04:35:48;2.30;98.20
21612;DHT22;47005;52.292;13.452;2022-12-11T04:38:14;2.30;98.30
21612;DHT22;47005;52.292;13.452;2022-12-11T04:40:39;2.40;98.30
21612;DHT22;47005;52.292;13.452;2022-12-11T04:43:05;2.30;98.30
21612;DHT22;47005;52.292;13.452;2022-12-11T04:45:31;2.30;98.30
21612;DHT22;47005;52.292;13.452;2022-12-11T04:47:56;2.30;98.40
21612;DHT22;47005;52.292;13.452;2022-12-11T04:50:22;2.30;98.40
21612;DHT22;47005;52.292;13.452;2022-12-11T04:52:47;2.30;98.40
21612;DHT22;47005;52.292;13.452;2022-12-11T04:55:13;2.30;98.40
21612;DHT22;47005;52.292;13.452;2022-12-11T04:57:39;2.30;98.40
21612;DHT22;47005;52.292;13.452;2022-12-11T05:00:07;2.30;98.20
21612;DHT22;47005;52.292;13.452;2022-12-11T05:02:34;2.30;98.30
21612;DHT22;47005;52.292;13.452;2022-12-11T05:05:01;2.30;98.30
21612;DHT22;47005;52.292;13.452;2022-12-11T05:07:27;2.30;98.40
21612;DHT22;47005;52.292;13.452;2022-12-11T05:09:53;2.30;98.30
21612;DHT22;47005;52.292;13.452;2022-12-11T05:12:18;2.20;98.20
21612;DHT22;47005;52.292;13.452;2022-12-11T05:14:44;2.20;98.30
21612;DHT22;47005;52.292;13.452;2022-12-11T05:17:10;2.20;98.30
21612;DHT22;47005;52.292;13.452;2022-12-11T05:19:35;2.20;98.20
21612;DHT22;47005;52.292;13.452;2022-12-11T05:22:01;2.20;98.20
21612;DHT22;47005;52.292;13.452;2022-12-11T05:24:26;2.20;98.30
21612;DHT22;47005;52.292;13.452;2022-12-11T05:26:52;2.10;98.40
21612;DHT22;47005;52.292;13.452;2022-12-11T05:29:18;2.20;98.40
21612;DHT22;47005;52.292;13.452;2022-12-11T05:31:43;2.20;98.40
21612;DHT22;47005;52.292;13.452;2022-12-11T05:34:09;2.20;98.30
21612;DHT22;47005;52.292;13.452;2022-12-11T05:36:34;2.20;98.40
21612;DHT22;47005;52.292;13.452;2022-12-11T05:39:01;2.20;98.40
21612;DHT22;47005;52.292;13.452;2022-12-11T05:41:29;2.20;98.50
21612;DHT22;47005;52.292;13.452;2022-12-11T05:43:55;2.20;98.40
21612;DHT22;47005;52.292;13.452;2022-12-11T05:46:24;2.20;98.40
21612;DHT22;47005;52.292;13.452;2022-12-11T05:48:54;2.20;98.60
21612;DHT22;47005;52.292;13.452;2022-12-11T05:51:21;2.20;98.60
21612;DHT22;47005;52.292;13.452;2022-12-11T05:53:48;2.20;98.70
21612;DHT22;47005;52.292;13.452;2022-12-11T05:56:16;2.20;98.60
21612;DHT22;47005;52.292;13.452;2022-12-11T05:58:43;2.20;98.50
21612;DHT22;47005;52.292;13.452;2022-12-11T06:01:15;2.20;98.50
21612;DHT22;47005;52.292;13.452;2022-12-11T06:03:41;2.20;98.50
21612;DHT22;47005;52.292;13.452;2022-12-11T06:06:06;2.30;98.60
21612;DHT22;47005;52.292;13.452;2022-12-11T06:08:33;2.20;98.50
21612;DHT22;47005;52.292;13.452;2022-12-11T06:10:59;2.20;98.60
21612;DHT22;47005;52.292;13.452;2022-12-11T06:13:24;2.20;98.60
21612;DHT22;47005;52.292;13.452;2022-12-11T06:15:50;2.20;98.70
21612;DHT22;47005;52.292;13.452;2022-12-11T06:18:16;2.20;98.70
21612;DHT22;47005;52.292;13.452;2022-12-11T06:20:41;2.20;98.70
21612;DHT22;47005;52.292;13.452;2022-12-11T06:23:07;2.20;98.60
21612;DHT22;47005;52.292;13.452;2022-12-11T06:25:33;2.20;98.70
21612;DHT22;47005;52.292;13.452;2022-12-11T06:27:58;2.20;98.70
21612;DHT22;47005;52.292;13.452;2022-12-11T06:30:24;2.20;98.70
21612;DHT22;47005;52.292;13.452;2022-12-11T06:32:50;2.20;98.70
21612;DHT22;47005;52.292;13.452;2022-12-11T06:35:16;2.20;98.70
21612;DHT22;47005;52.292;13.452;2022-12-11T06:37:41;2.20;98.80
21612;DHT22;47005;52.292;13.452;2022-12-11T06:40:09;2.20;98.80
21612;DHT22;47005;52.292;13.452;2022-12-11T06:42:36;2.20;98.70
21612;DHT22;47005;52.292;13.452;2022-12-11T06:45:02;2.20;98.80
21612;DHT22;47005;52.292;13.452;2022-12-11T06:47:28;2.20;98.80
21612;DHT22;47005;52.292;13.452;2022-12-11T06:49:55;2.20;98.80
21612;DHT22;47005;52.292;13.452;2022-12-11T06:52:22;2.20;98.90
21612;DHT22;47005;52.292;13.452;2022-12-11T06:54:48;2.20;98.90
21612;DHT22;47005;52.292;13.452;2022-12-11T06:57:14;2.20;98.90
21612;DHT22;47005;52.292;13.452;2022-12-11T06:59:39;2.20;98.90
21612;DHT22;47005;52.292;13.452;2022-12-11T07:02:05;2.20;98.90
21612;DHT22;47005;52.292;13.452;2022-12-11T07:04:32;2.20;99.00
21612;DHT22;47005;52.292;13.452;2022-12-11T07:06:57;2.20;99.00
21612;DHT22;47005;52.292;13.452;2022-12-11T07:09:23;2.10;99.00
21612;DHT22;47005;52.292;13.452;2022-12-11T07:11:50;2.20;99.00
21612;DHT22;47005;52.292;13.452;2022-12-11T07:14:16;2.10;99.00
21612;DHT22;47005;52.292;13.452;2022-12-11T07:16:41;2.20;99.20
21612;DHT22;47005;52.292;13.452;2022-12-11T07:19:07;2.20;99.20
21612;DHT22;47005;52.292;13.452;2022-12-11T07:21:32;2.20;99.20
21612;DHT22;47005;52.292;13.452;2022-12-11T07:23:58;2.10;99.10
21612;DHT22;47005;52.292;13.452;2022-12-11T07:26:24;2.10;99.30
21612;DHT22;47005;52.292;13.452;2022-12-11T07:28:49;2.10;99.20
21612;DHT22;47005;52.292;13.452;2022-12-11T07:31:21;2.10;99.20
21612;DHT22;47005;52.292;13.452;2022-12-11T07:33:51;2.10;99.30
21612;DHT22;47005;52.292;13.452;2022-12-11T07:36:17;2.10;99.30
21612;DHT22;47005;52.292;13.452;2022-12-11T07:38:42;2.20;99.30
21612;DHT22;47005;52.292;13.452;2022-12-11T07:41:12;2.20;99.40
21612;DHT22;47005;52.292;13.452;2022-12-11T07:43:38;2.20;99.40
21612;DHT22;47005;52.292;13.452;2022-12-11T07:46:11;2.20;99.40
21612;DHT22;47005;52.292;13.452;2022-12-11T07:48:38;2.20;99.50
21612;DHT22;47005;52.292;13.452;2022-12-11T07:51:31;2.20;99.50
21612;DHT22;47005;52.292;13.452;2022-12-11T07:53:59;2.20;99.90
21612;DHT22;47005;52.292;13.452;2022-12-11T07:56:26;2.20;99.50
21612;DHT22;47005;52.292;13.452;2022-12-11T07:58:53;2.20;99.50
21612;DHT22;47005;52.292;13.452;2022-12-11T08:01:23;2.20;99.60
21612;DHT22;47005;52.292;13.452;2022-12-11T08:03:50;2.30;99.50
21612;DHT22;47005;52.292;13.452;2022-12-11T08:06:17;2.30;99.60
21612;DHT22;47005;52.292;13.452;2022-12-11T08:08:43;2.30;99.60
21612;DHT22;47005;52.292;13.452;2022-12-11T08:11:13;2.30;99.30
21612;DHT22;47005;52.292;13.452;2022-12-11T08:13:40;2.30;99.30
21612;DHT22;47005;52.292;13.452;2022-12-11T08:16:08;2.30;99.10
21612;DHT22;47005;52.292;13.452;2022-12-11T08:18:34;2.30;99.00
21612;DHT22;47005;52.292;13.452;2022-12-11T08:21:08;2.40;98.60
21612;DHT22;47005;52.292;13.452;2022-12-11T08:23:34;2.40;98.10
21612;DHT22;47005;52.292;13.452;2022-12-11T08:26:04;2.30;98.10
21612;DHT22;47005;52.292;13.452;2022-12-11T08:28:30;2.30;97.00
21612;DHT22;47005;52.292;13.452;2022-12-11T08:30:56;2.30;97.70
21612;DHT22;47005;52.292;13.452;2022-12-11T08:33:22;2.30;98.00
21612;DHT22;47005;52.292;13.452;2022-12-11T08:35:48;2.30;97.80
21612;DHT22;47005;52.292;13.452;2022-12-11T08:38:13;2.30;97.70
21612;DHT22;47005;52.292;13.452;2022-12-11T08:40:39;2.30;97.90
21612;DHT22;47005;52.292;13.452;2022-12-11T08:43:05;2.30;97.80
21612;DHT22;47005;52.292;13.452;2022-12-11T08:45:31;2.30;97.80
21612;DHT22;47005;52.292;13.452;2022-12-11T08:48:00;2.30;97.60
21612;DHT22;47005;52.292;13.452;2022-12-11T08:50:25;2.30;97.70
21612;DHT22;47005;52.292;13.452;2022-12-11T08:52:51;2.30;97.80
21612;DHT22;47005;52.292;13.452;2022-12-11T08:55:18;2.30;97.50
21612;DHT22;47005;52.292;13.452;2022-12-11T08:57:44;2.30;97.30
21612;DHT22;47005;52.292;13.452;2022-12-11T09:00:11;2.30;97.50
21612;DHT22;47005;52.292;13.452;2022-12-11T09:02:37;2.30;97.60
21612;DHT22;47005;52.292;13.452;2022-12-11T09:05:03;2.30;97.30
21612;DHT22;47005;52.292;13.452;2022-12-11T09:07:32;2.30;97.40
21612;DHT22;47005;52.292;13.452;2022-12-11T09:09:58;2.40;97.30
21612;DHT22;47005;52.292;13.452;2022-12-11T09:12:24;2.30;97.40
21612;DHT22;47005;52.292;13.452;2022-12-11T09:14:50;2.30;97.20
21612;DHT22;47005;52.292;13.452;2022-12-11T09:17:15;2.30;97.30
21612;DHT22;47005;52.292;13.452;2022-12-11T09:19:41;2.40;97.30
21612;DHT22;47005;52.292;13.452;2022-12-11T09:22:06;2.40;97.30
21612;DHT22;47005;52.292;13.452;2022-12-11T09:24:36;2.30;97.10
21612;DHT22;47005;52.292;13.452;2022-12-11T09:27:02;2.30;97.50
21612;DHT22;47005;52.292;13.452;2022-12-11T09:29:28;2.40;97.30
21612;DHT22;47005;52.292;13.452;2022-12-11T09:31:54;2.40;97.30
21612;DHT22;47005;52.292;13.452;2022-12-11T09:34:20;2.40;97.00
21612;DHT22;47005;52.292;13.452;2022-12-11T09:36:46;2.40;97.20
21612;DHT22;47005;52.292;13.452;2022-12-11T09:39:13;2.40;96.70
21612;DHT22;47005;52.292;13.452;2022-12-11T09:44:31;2.40;96.10
21612;DHT22;47005;52.292;13.452;2022-12-11T09:46:58;2.40;96.40
21612;DHT22;47005;52.292;13.452;2022-12-11T09:49:37;2.40;96.50
21612;DHT22;47005;52.292;13.452;2022-12-11T09:52:21;2.40;96.80
21612;DHT22;47005;52.292;13.452;2022-12-11T09:54:58;2.40;96.60
21612;DHT22;47005;52.292;13.452;2022-12-11T10:08:52;2.40;96.30
21612;DHT22;47005;52.292;13.452;2022-12-11T10:11:27;2.40;96.70
21612;DHT22;47005;52.292;13.452;2022-12-11T10:19:33;2.50;96.20
21612;DHT22;47005;52.292;13.452;2022-12-11T10:22:00;2.50;96.20
21612;DHT22;47005;52.292;13.452;2022-12-11T10:24:38;2.50;96.40
21612;DHT22;47005;52.292;13.452;2022-12-11T10:27:22;2.50;96.60
21612;DHT22;47005;52.292;13.452;2022-12-11T10:29:56;2.50;96.10
21612;DHT22;47005;52.292;13.452;2022-12-11T10:32:36;2.50;96.20
21612;DHT22;47005;52.292;13.452;2022-12-11T10:35:05;2.50;96.40
21612;DHT22;47005;52.292;13.452;2022-12-11T10:37:31;2.50;96.20
21612;DHT22;47005;52.292;13.452;2022-12-11T10:39:57;2.50;96.40
21612;DHT22;47005;52.292;13.452;2022-12-11T10:42:22;2.60;96.40
21612;DHT22;47005;52.292;13.452;2022-12-11T10:44:57;2.50;96.30
21612;DHT22;47005;52.292;13.452;2022-12-11T10:47:23;2.50;96.30
21612;DHT22;47005;52.292;13.452;2022-12-11T10:50:00;2.50;96.00
21612;DHT22;47005;52.292;13.452;2022-12-11T10:52:36;2.50;96.20
21612;DHT22;47005;52.292;13.452;2022-12-11T10:55:18;2.50;96.20
21612;DHT22;47005;52.292;13.452;2022-12-11T10:57:45;2.50;96.40
21612;DHT22;47005;52.292;13.452;2022-12-11T11:00:38;2.60;96.30
21612;DHT22;47005;52.292;13.452;2022-12-11T11:03:17;2.60;96.10
21612;DHT22;47005;52.292;13.452;2022-12-11T11:05:44;2.60;96.30
21612;DHT22;47005;52.292;13.452;2022-12-11T11:08:15;2.60;96.20
21612;DHT22;47005;52.292;13.452;2022-12-11T11:10:58;2.60;96.10
21612;DHT22;47005;52.292;13.452;2022-12-11T11:13:26;2.60;96.10
21612;DHT22;47005;52.292;13.452;2022-12-11T11:16:06;2.60;96.30
21612;DHT22;47005;52.292;13.452;2022-12-11T11:18:34;2.60;96.60
21612;DHT22;47005;52.292;13.452;2022-12-11T11:21:01;2.60;96.50
21612;DHT22;47005;52.292;13.452;2022-12-11T11:23:27;2.60;96.40
21612;DHT22;47005;52.292;13.452;2022-12-11T11:25:54;2.60;96.40
21612;DHT22;47005;52.292;13.452;2022-12-11T11:28:27;2.60;96.40
21612;DHT22;47005;52.292;13.452;2022-12-11T11:33:24;2.60;96.60
21612;DHT22;47005;52.292;13.452;2022-12-11T11:35:56;2.60;96.60
21612;DHT22;47005;52.292;13.452;2022-12-11T11:38:25;2.60;96.60
21612;DHT22;47005;52.292;13.452;2022-12-11T11:41:19;2.60;96.30
21612;DHT22;47005;52.292;13.452;2022-12-11T11:43:50;2.70;96.30
21612;DHT22;47005;52.292;13.452;2022-12-11T11:51:36;2.70;96.20
21612;DHT22;47005;52.292;13.452;2022-12-11T11:54:30;2.70;96.40
21612;DHT22;47005;52.292;13.452;2022-12-11T11:56:58;2.70;96.50
21612;DHT22;47005;52.292;13.452;2022-12-11T12:02:21;2.70;96.50
21612;DHT22;47005;52.292;13.452;2022-12-11T12:04:47;2.70;96.60
21612;DHT22;47005;52.292;13.452;2022-12-11T12:07:36;2.70;96.50
21612;DHT22;47005;52.292;13.452;2022-12-11T12:18:28;2.70;96.00
21612;DHT22;47005;52.292;13.452;2022-12-11T12:21:02;2.70;96.10
21612;DHT22;47005;52.292;13.452;2022-12-11T12:26:28;2.70;96.20
21612;DHT22;47005;52.292;13.452;2022-12-11T12:29:23;2.70;96.30
21612;DHT22;47005;52.292;13.452;2022-12-11T12:35:05;2.70;96.50
21612;DHT22;47005;52.292;13.452;2022-12-11T12:48:27;2.70;96.70
21612;DHT22;47005;52.292;13.452;2022-12-11T12:50:54;2.60;96.50
21612;DHT22;47005;52.292;13.452;2022-12-11T12:53:23;2.70;96.70
21612;DHT22;47005;52.292;13.452;2022-12-11T12:55:50;2.70;96.90
21612;DHT22;47005;52.292;13.452;2022-12-11T12:58:43;2.70;96.50
21612;DHT22;47005;52.292;13.452;2022-12-11T13:01:20;2.70;96.50
21612;DHT22;47005;52.292;13.452;2022-12-11T13:04:04;2.70;96.40
21612;DHT22;47005;52.292;13.452;2022-12-11T13:06:39;2.70;96.50
21612;DHT22;47005;52.292;13.452;2022-12-11T13:09:23;2.70;96.80
21612;DHT22;47005;52.292;13.452;2022-12-11T13:11:51;2.70;96.50
21612;DHT22;47005;52.292;13.452;2022-12-11T13:19:47;2.70;96.70
21612;DHT22;47005;52.292;13.452;2022-12-11T13:32:33;2.70;96.40
21612;DHT22;47005;52.292;13.452;2022-12-11T13:35:05;2.70;96.40
21612;DHT22;47005;52.292;13.452;2022-12-11T13:37:40;2.70;96.50
21612;DHT22;47005;52.292;13.452;2022-12-11T13:40:25;2.70;96.50
21612;DHT22;47005;52.292;13.452;2022-12-11T13:43:03;2.70;96.60
21612;DHT22;47005;52.292;13.452;2022-12-11T13:48:27;2.60;96.70
21612;DHT22;47005;52.292;13.452;2022-12-11T13:50:54;2.70;96.70
21612;DHT22;47005;52.292;13.452;2022-12-11T13:53:21;2.70;96.70
21612;DHT22;47005;52.292;13.452;2022-12-11T13:56:02;2.70;96.70
21612;DHT22;47005;52.292;13.452;2022-12-11T13:58:32;2.70;96.70
21612;DHT22;47005;52.292;13.452;2022-12-11T14:03:31;2.70;96.30
21612;DHT22;47005;52.292;13.452;2022-12-11T14:05:58;2.70;96.30
21612;DHT22;47005;52.292;13.452;2022-12-11T14:08:37;2.70;96.30
21612;DHT22;47005;52.292;13.452;2022-12-11T14:11:04;2.70;96.50
21612;DHT22;47005;52.292;13.452;2022-12-11T14:13:35;2.70;96.60
21612;DHT22;47005;52.292;13.452;2022-12-11T14:16:02;2.70;96.20
21612;DHT22;47005;52.292;13.452;2022-12-11T14:18:31;2.70;96.40
21612;DHT22;47005;52.292;13.452;2022-12-11T14:21:00;2.70;96.30
21612;DHT22;47005;52.292;13.452;2022-12-11T14:23:31;2.70;96.40
21612;DHT22;47005;52.292;13.452;2022-12-11T14:26:00;2.70;96.60
21612;DHT22;47005;52.292;13.452;2022-12-11T14:28:28;2.70;96.40
21612;DHT22;47005;52.292;13.452;2022-12-11T14:30:57;2.70;96.50
21612;DHT22;47005;52.292;13.452;2022-12-11T14:33:32;2.60;96.50
21612;DHT22;47005;52.292;13.452;2022-12-11T14:35:59;2.60;96.30
21612;DHT22;47005;52.292;13.452;2022-12-11T14:38:33;2.60;96.40
21612;DHT22;47005;52.292;13.452;2022-12-11T14:41:16;2.60;96.50
21612;DHT22;47005;52.292;13.452;2022-12-11T14:43:50;2.60;96.70
21612;DHT22;47005;52.292;13.452;2022-12-11T14:46:21;2.60;96.60
21612;DHT22;47005;52.292;13.452;2022-12-11T14:48:58;2.50;96.70
21612;DHT22;47005;52.292;13.452;2022-12-11T14:51:28;2.60;96.60
21612;DHT22;47005;52.292;13.452;2022-12-11T14:53:57;2.50;96.70
21612;DHT22;47005;52.292;13.452;2022-12-11T14:56:25;2.50;96.70
21612;DHT22;47005;52.292;13.452;2022-12-11T14:58:58;2.50;96.70
21612;DHT22;47005;52.292;13.452;2022-12-11T15:01:29;2.50;96.60
21612;DHT22;47005;52.292;13.452;2022-12-11T15:06:31;2.50;96.90
21612;DHT22;47005;52.292;13.452;2022-12-11T15:09:17;2.50;96.90
21612;DHT22;47005;52.292;13.452;2022-12-11T15:11:43;2.50;97.00
21612;DHT22;47005;52.292;13.452;2022-12-11T15:14:11;2.50;97.00
21612;DHT22;47005;52.292;13.452;2022-12-11T15:16:39;2.50;97.10
21612;DHT22;47005;52.292;13.452;2022-12-11T15:19:06;2.50;97.10
21612;DHT22;47005;52.292;13.452;2022-12-11T15:21:39;2.50;97.10
21612;DHT22;47005;52.292;13.452;2022-12-11T15:24:05;2.50;97.10
21612;DHT22;47005;52.292;13.452;2022-12-11T15:26:43;2.50;97.10
21612;DHT22;47005;52.292;13.452;2022-12-11T15:29:38;2.50;97.10
21612;DHT22;47005;52.292;13.452;2022-12-11T15:32:24;2.50;97.20
21612;DHT22;47005;52.292;13.452;2022-12-11T15:34:55;2.50;97.20
21612;DHT22;47005;52.292;13.452;2022-12-11T15:37:27;2.50;97.10
21612;DHT22;47005;52.292;13.452;2022-12-11T15:39:54;2.50;97.20
21612;DHT22;47005;52.292;13.452;2022-12-11T15:44:49;2.50;97.30
21612;DHT22;47005;52.292;13.452;2022-12-11T15:47:20;2.50;97.30
21612;DHT22;47005;52.292;13.452;2022-12-11T15:49:46;2.50;97.30
21612;DHT22;47005;52.292;13.452;2022-12-11T15:52:11;2.50;97.20
21612;DHT22;47005;52.292;13.452;2022-12-11T15:54:37;2.40;97.20
21612;DHT22;47005;52.292;13.452;2022-12-11T15:57:05;2.40;97.20
21612;DHT22;47005;52.292;13.452;2022-12-11T15:59:32;2.50;97.30
21612;DHT22;47005;52.292;13.452;2022-12-11T16:01:58;2.40;97.30
21612;DHT22;47005;52.292;13.452;2022-12-11T16:04:23;2.40;97.30
21612;DHT22;47005;52.292;13.452;2022-12-11T16:06:50;2.40;97.40
21612;DHT22;47005;52.292;13.452;2022-12-11T16:09:15;2.40;97.40
21612;DHT22;47005;52.292;13.452;2022-12-11T16:11:41;2.40;97.40
21612;DHT22;47005;52.292;13.452;2022-12-11T16:14:07;2.40;97.40
21612;DHT22;47005;52.292;13.452;2022-12-11T16:16:32;2.40;97.40
21612;DHT22;47005;52.292;13.452;2022-12-11T16:18:58;2.40;97.40
21612;DHT22;47005;52.292;13.452;2022-12-11T16:21:24;2.40;97.50
21612;DHT22;47005;52.292;13.452;2022-12-11T16:23:49;2.40;97.50
21612;DHT22;47005;52.292;13.452;2022-12-11T16:26:15;2.40;97.50
21612;DHT22;47005;52.292;13.452;2022-12-11T16:28:41;2.40;97.60
21612;DHT22;47005;52.292;13.452;2022-12-11T16:31:11;2.40;97.60
21612;DHT22;47005;52.292;13.452;2022-12-11T16:33:38;2.40;97.60
21612;DHT22;47005;52.292;13.452;2022-12-11T16:36:17;2.40;97.60
21612;DHT22;47005;52.292;13.452;2022-12-11T16:38:49;2.40;97.60
21612;DHT22;47005;52.292;13.452;2022-12-11T16:41:15;2.30;97.60
21612;DHT22;47005;52.292;13.452;2022-12-11T16:43:40;2.30;97.60
21612;DHT22;47005;52.292;13.452;2022-12-11T16:46:06;2.30;97.50
21612;DHT22;47005;52.292;13.452;2022-12-11T16:48:32;2.40;97.60
21612;DHT22;47005;52.292;13.452;2022-12-11T16:50:57;2.30;97.60
21612;DHT22;47005;52.292;13.452;2022-12-11T16:53:23;2.30;97.70
21612;DHT22;47005;52.292;13.452;2022-12-11T16:55:49;2.30;97.70
21612;DHT22;47005;52.292;13.452;2022-12-11T16:58:15;2.30;97.80
21612;DHT22;47005;52.292;13.452;2022-12-11T17:00:45;2.30;97.70
21612;DHT22;47005;52.292;13.452;2022-12-11T17:03:12;2.30;97.70
21612;DHT22;47005;52.292;13.452;2022-12-11T17:05:41;2.30;97.70
21612;DHT22;47005;52.292;13.452;2022-12-11T17:08:07;2.30;97.70
21612;DHT22;47005;52.292;13.452;2022-12-11T17:10:37;2.30;97.80
21612;DHT22;47005;52.292;13.452;2022-12-11T17:13:02;2.30;97.80
21612;DHT22;47005;52.292;13.452;2022-12-11T17:15:28;2.30;97.80
21612;DHT22;47005;52.292;13.452;2022-12-11T17:17:54;2.30;97.90
21612;DHT22;47005;52.292;13.452;2022-12-11T17:20:19;2.30;97.90
21612;DHT22;47005;52.292;13.452;2022-12-11T17:22:45;2.30;98.00
21612;DHT22;47005;52.292;13.452;2022-12-11T17:25:11;2.30;98.00
21612;DHT22;47005;52.292;13.452;2022-12-11T17:27:36;2.30;98.00